Flight Track Log - Related Links

Times and Time Zones

All times are in EDT time to prevent confusion due to time zone crossing. See the EGF3676 flight status page for this flight to view local times or setup timezone preferences in your user account.

Time Position Orientation Groundspeed Altitude Reporting Facility
EDT Latitude Longitude Course Direction KTS MPH feet Rate Location/Type
Fri 06:01:14 PM 39.9500 -104.7167 255° West 216 249 8,000  Level Denver TRACON
Fri 06:02:00 PM 39.7280 -105.0495 247° West  Level FlightAware Approximate
Fri 06:02:10 PM 40.0092 -104.7364 346° North 250 288 9,800  Level Denver Center
Fri 06:03:00 PM 39.6857 -105.1763 247° West  Level FlightAware Approximate
Fri 06:03:12 PM 40.0372 -104.8253 292° West 292 336 11,700  Level Denver Center
Fri 06:04:00 PM 39.6483 -105.3054 248° West  Level FlightAware Approximate
Fri 06:04:14 PM 40.0008 -104.9403 248° West 337 388 13,700  Level Denver Center
Fri 06:05:00 PM 39.6089 -105.4336 248° West  Level FlightAware Approximate
Fri 06:05:28 PM 39.9361 -105.0383 229° Southwest 357 411 15,200  Level Denver Center
Fri 06:06:00 PM 39.5626 -105.5539 255° West  Level FlightAware Approximate
Fri 06:06:30 PM 39.8503 -105.1706 230° Southwest 389 448 17,300  Level Denver Center
Fri 06:07:44 PM 39.7722 -105.2881 229° Southwest 401 461 19,000 1,570 Climbing Denver Center
Fri 06:08:59 PM 39.6808 -105.4272 230° Southwest 412 474 21,200 1,971 Climbing Denver Center
Fri 06:10:01 PM 39.5881 -105.5636 229° Southwest 414 476 23,500 1,984 Climbing Denver Center
Fri 06:11:03 PM 39.5303 -105.6933 240° Southwest 395 455 25,300 1,500 Climbing Denver Center
Fri 06:12:05 PM 39.4978 -105.8067 250° West 401 461 26,600 1,258 Climbing Denver Center
Fri 06:13:07 PM 39.4639 -105.9403 252° West 388 447 27,900 1,355 Climbing Denver Center
Fri 06:14:09 PM 39.4186 -106.1008 250° West 401 461 29,400 1,355 Climbing Denver Center
Fri 06:15:11 PM 39.3753 -106.2544 250° West 407 468 30,700 971 Climbing Denver Center
Fri 06:16:25 PM 39.3378 -106.3864 250° West 409 471 31,600 1,015 Climbing Denver Center
Fri 06:17:27 PM 39.2939 -106.5406 250° West 410 472 33,000 1,258 Climbing Denver Center
Fri 06:18:29 PM 39.2564 -106.6703 250° West 404 465 34,200 1,210 Climbing Denver Center
Fri 06:19:31 PM 39.1900 -106.8047 238° Southwest 401 461 35,500 1,210 Climbing Denver Center
Fri 06:20:33 PM 39.1103 -106.9286 230° Southwest 401 461 36,700 1,113 Climbing Denver Center
Fri 06:21:35 PM 39.0353 -107.0481 231° Southwest 387 445 37,800 629 Climbing Denver Center
Fri 06:22:37 PM 38.9722 -107.1492 231° Southwest 379 436 38,000 97 Climbing Denver Center
Fri 06:23:39 PM 38.8939 -107.2717 231° Southwest 395 455 38,000  Level Denver Center
Fri 06:24:42 PM 38.8253 -107.3783 230° Southwest 402 463 38,000  Level Denver Center
Fri 06:25:43 PM 38.7428 -107.5061 230° Southwest 411 473 38,000  Level Denver Center
Fri 06:26:45 PM 38.6703 -107.6208 231° Southwest 424 488 38,000  Level Denver Center
Fri 06:27:47 PM 38.6092 -107.7136 230° Southwest 426 490 38,000  Level Denver Center
Fri 06:28:49 PM 38.5131 -107.8636 231° Southwest 426 490 38,000  Level Denver Center
Fri 06:29:52 PM 38.4400 -107.9758 230° Southwest 428 493 38,000  Level Denver Center
Fri 06:30:54 PM 38.3544 -108.1078 230° Southwest 430 495 38,000  Level Denver Center
Fri 06:31:56 PM 38.2808 -108.2192 230° Southwest 428 493 38,000  Level Denver Center
Fri 06:32:58 PM 38.1944 -108.3531 231° Southwest 432 497 38,000  Level Denver Center
Fri 06:34:00 PM 38.1192 -108.4650 229° Southwest 435 501 38,000  Level Denver Center
Fri 06:35:02 PM 38.0353 -108.5906 230° Southwest 429 494 38,000  Level Denver Center
Fri 06:36:04 PM 37.9622 -108.6986 229° Southwest 423 487 38,000  Level Denver Center
Fri 06:37:05 PM 37.8769 -108.8286 230° Southwest 427 491 38,000  Level Denver Center
Fri 06:38:07 PM 37.8058 -108.9394 231° Southwest 426 490 38,000  Level Denver Center
Fri 06:39:09 PM 37.7419 -109.0808 240° Southwest 418 481 38,000  Level Denver Center
Fri 06:40:23 PM 37.6889 -109.2019 241° Southwest 413 475 38,000  Level Denver Center
Fri 06:41:26 PM 37.6164 -109.3631 240° Southwest 413 475 38,000  Level Denver Center
Fri 06:42:28 PM 37.5628 -109.4844 241° Southwest 414 476 38,000  Level Denver Center
Fri 06:43:30 PM 37.4992 -109.6253 240° Southwest 415 478 38,000  Level Denver Center
Fri 06:44:31 PM 37.4444 -109.7453 240° Southwest 413 475 38,000  Level Denver Center
Fri 06:45:33 PM 37.3817 -109.8858 241° Southwest 413 475 38,000  Level Denver Center
Fri 06:46:35 PM 37.3361 -109.9844 240° Southwest 411 473 38,000  Level Denver Center
Fri 06:47:37 PM 37.2631 -110.1444 240° Southwest 413 475 38,000  Level Denver Center
Fri 06:49:19 PM 37.1664 -110.3481 239° Southwest 419 482 38,000  Level Los Angeles Center
Fri 06:49:41 PM 37.1467 -110.3981 244° Southwest 415 478 38,000  Level Denver Center
Fri 06:50:43 PM 37.0892 -110.5219 240° Southwest 412 474 38,000  Level Denver Center
Fri 06:51:45 PM 37.0311 -110.6478 240° Southwest 415 478 38,000  Level Denver Center
Fri 06:52:47 PM 36.9733 -110.7717 240° Southwest 415 478 38,000  Level Denver Center
Fri 06:53:49 PM 36.9036 -110.9211 240° Southwest 413 475 38,000  Level Denver Center
Fri 06:54:51 PM 36.8447 -111.0453 239° Southwest 413 475 38,000  Level Denver Center
Fri 06:55:53 PM 36.7889 -111.1681 240° Southwest 410 472 38,000  Level Denver Center
Fri 06:56:55 PM 36.7300 -111.2922 239° Southwest 412 474 38,000  Level Denver Center
Fri 06:58:09 PM 36.6708 -111.4158 239° Southwest 414 476 38,000  Level Denver Center
Fri 06:59:11 PM 36.5989 -111.5636 239° Southwest 415 478 38,000  Level Denver Center
Fri 07:00:25 PM 36.5400 -111.6872 239° Southwest 415 478 38,000  Level Denver Center
Fri 07:01:27 PM 36.4572 -111.8600 239° Southwest 414 476 38,000  Level Denver Center
Fri 07:01:43 PM 36.4433 -111.8853 236° Southwest 416 479 38,000  Level Los Angeles Center
Fri 07:02:45 PM 36.3842 -112.0078 239° Southwest 414 476 38,000  Level Los Angeles Center
Fri 07:03:47 PM 36.3244 -112.1306 239° Southwest 415 478 38,000  Level Los Angeles Center
Fri 07:04:49 PM 36.2647 -112.2533 239° Southwest 415 478 38,000  Level Los Angeles Center
Fri 07:05:51 PM 36.1928 -112.4011 239° Southwest 417 480 38,000  Level Los Angeles Center
Fri 07:06:53 PM 36.1331 -112.5219 239° Southwest 412 474 38,000  Level Los Angeles Center
Fri 07:07:55 PM 36.0733 -112.6456 239° Southwest 416 479 38,000  Level Los Angeles Center
Fri 07:08:57 PM 36.0128 -112.7672 238° Southwest 416 479 38,000  Level Los Angeles Center
Fri 07:09:59 PM 35.9544 -112.8853 239° Southwest 415 478 38,000  Level Los Angeles Center
Fri 07:11:13 PM 35.8939 -113.0075 239° Southwest 419 482 38,000  Level Los Angeles Center
Fri 07:12:15 PM 35.8103 -113.1742 238° Southwest 414 476 38,000  Level Los Angeles Center
Fri 07:13:18 PM 35.7508 -113.2953 239° Southwest 417 480 38,000  Level Los Angeles Center
Fri 07:14:20 PM 35.6903 -113.4133 238° Southwest 416 479 38,000  Level Los Angeles Center
Fri 07:15:22 PM 35.6306 -113.5328 238° Southwest 415 478 38,000  Level Los Angeles Center
Fri 07:16:24 PM 35.5694 -113.6819 243° Southwest 412 474 38,000  Level Los Angeles Center
Fri 07:17:26 PM 35.5186 -113.8061 243° Southwest 411 473 38,000  Level Los Angeles Center
Fri 07:18:28 PM 35.4672 -113.9314 243° Southwest 413 475 38,000  Level Los Angeles Center
Fri 07:19:30 PM 35.4125 -114.0633 243° Southwest 411 473 38,000  Level Los Angeles Center
Fri 07:20:32 PM 35.3617 -114.1889 244° Southwest 412 474 38,000  Level Los Angeles Center
Fri 07:21:34 PM 35.3114 -114.3119 243° Southwest 405 466 38,000  Level Los Angeles Center
Fri 07:22:36 PM 35.2592 -114.4367 243° Southwest 407 468 38,000  Level Los Angeles Center
Fri 07:23:37 PM 35.2181 -114.5358 243° Southwest 409 471 38,000  Level Los Angeles Center
Fri 07:24:40 PM 35.1444 -114.7117 243° Southwest 413 475 38,000  Level Los Angeles Center
Fri 07:25:42 PM 35.0928 -114.8358 243° Southwest 410 472 38,000  Level Los Angeles Center
Fri 07:26:44 PM 35.0403 -114.9600 243° Southwest 411 473 38,000  Level Los Angeles Center
Fri 07:27:46 PM 34.9878 -115.0844 243° Southwest 411 473 38,000  Level Los Angeles Center
Fri 07:29:00 PM 34.9356 -115.2097 243° Southwest 412 474 38,000  Level Los Angeles Center
Fri 07:30:02 PM 34.8728 -115.3594 243° Southwest 414 476 38,000  Level Los Angeles Center
Fri 07:31:05 PM 34.8086 -115.5092 242° Southwest 416 479 38,000  Level Los Angeles Center
Fri 07:32:07 PM 34.7592 -115.6253 243° Southwest 414 476 38,000  Level Los Angeles Center
Fri 07:33:09 PM 34.7053 -115.7497 242° Southwest 415 478 38,000 -97 Level Los Angeles Center
Fri 07:34:11 PM 34.6517 -115.8731 242° Southwest 414 476 37,800 -1,065 Descending Los Angeles Center
Fri 07:35:13 PM 34.5989 -115.9967 243° Southwest 413 475 35,800 -2,129 Descending Los Angeles Center
Fri 07:36:15 PM 34.5325 -116.1503 242° Southwest 428 493 33,400 -2,177 Descending Los Angeles Center
Fri 07:37:17 PM 34.4728 -116.2850 242° Southwest 449 517 31,300 -1,839 Descending Los Angeles Center
Fri 07:38:19 PM 34.4147 -116.4175 242° Southwest 446 513 29,600 -1,839 Descending Los Angeles Center
Fri 07:39:21 PM 34.3558 -116.5481 241° Southwest 445 512 27,500 -2,226 Descending Los Angeles Center
Fri 07:40:23 PM 34.3011 -116.6753 243° Southwest 432 497 25,000 -2,371 Descending Los Angeles Center
Fri 07:41:25 PM 34.2419 -116.8061 241° Southwest 441 507 22,600 -2,565 Descending Los Angeles Center
Fri 07:42:27 PM 34.1744 -116.9578 242° Southwest 429 494 19,700 -1,742 Descending Los Angeles Center
Fri 07:43:29 PM 34.1197 -117.0797 242° Southwest 395 455 19,000 -519 Descending Los Angeles Center
Fri 07:43:48 PM 34.1000 -117.1167 237° Southwest 362 417 19,000 -1,443 Level Southern California TRACON
Fri 07:44:48 PM 34.0667 -117.2167 248° West 355 409 17,100 -1,934 Descending Southern California TRACON
Fri 07:45:49 PM 34.0333 -117.3333 251° West 339 390 15,100 -1,884 Descending Southern California TRACON
Fri 07:46:49 PM 34.0333 -117.4333 270° West 326 375 13,300 -1,600 Descending Southern California TRACON
Fri 07:47:49 PM 34.0167 -117.5500 260° West 332 382 11,900 -1,300 Descending Southern California TRACON
Fri 07:48:49 PM 34.0167 -117.6667 270° West 337 388 10,700 -1,300 Descending Southern California TRACON
Fri 07:49:49 PM 34.0000 -117.7500 256° West 279 321 9,300 -1,450 Descending Southern California TRACON
Fri 07:50:49 PM 33.9833 -117.8500 259° West 283 326 7,800 -1,300 Descending Southern California TRACON
Fri 07:51:49 PM 33.9833 -117.9500 270° West 285 328 6,700 -900 Descending Southern California TRACON
Fri 07:52:49 PM 33.9667 -118.0333 256° West 281 323 6,000 -700 Descending Southern California TRACON

Login

Don't have an account? Register now (free) for customized features, flight alerts, and more!